sensor_id;sensor_type;location;lat;lon;timestamp;P1;durP1;ratioP1;P2;durP2;ratioP2
11447;SDS011;43755;49.736;8.734;2023-08-06T00:02:00;3.35;;;3.05;;
11447;SDS011;43755;49.736;8.734;2023-08-06T00:04:00;2.50;;;2.30;;
11447;SDS011;43755;49.736;8.734;2023-08-06T00:06:02;2.80;;;2.60;;
11447;SDS011;43755;49.736;8.734;2023-08-06T00:08:03;3.15;;;2.83;;
11447;SDS011;43755;49.736;8.734;2023-08-06T00:10:05;2.78;;;2.58;;
11447;SDS011;43755;49.736;8.734;2023-08-06T00:12:07;2.90;;;2.70;;
11447;SDS011;43755;49.736;8.734;2023-08-06T00:14:08;3.45;;;2.88;;
11447;SDS011;43755;49.736;8.734;2023-08-06T00:16:12;3.22;;;3.03;;
11447;SDS011;43755;49.736;8.734;2023-08-06T00:18:14;3.67;;;2.80;;
11447;SDS011;43755;49.736;8.734;2023-08-06T00:20:15;3.13;;;2.60;;
11447;SDS011;43755;49.736;8.734;2023-08-06T00:22:16;3.05;;;2.78;;
11447;SDS011;43755;49.736;8.734;2023-08-06T00:24:18;2.90;;;2.70;;
11447;SDS011;43755;49.736;8.734;2023-08-06T00:26:19;4.00;;;2.92;;
11447;SDS011;43755;49.736;8.734;2023-08-06T00:28:21;3.03;;;2.72;;
11447;SDS011;43755;49.736;8.734;2023-08-06T00:30:22;3.00;;;2.72;;
11447;SDS011;43755;49.736;8.734;2023-08-06T00:32:24;3.27;;;2.63;;
11447;SDS011;43755;49.736;8.734;2023-08-06T00:34:25;3.13;;;2.88;;
11447;SDS011;43755;49.736;8.734;2023-08-06T00:36:27;3.58;;;3.05;;
11447;SDS011;43755;49.736;8.734;2023-08-06T00:38:28;2.63;;;2.53;;
11447;SDS011;43755;49.736;8.734;2023-08-06T00:40:29;3.17;;;2.55;;
11447;SDS011;43755;49.736;8.734;2023-08-06T00:42:31;3.10;;;2.67;;
11447;SDS011;43755;49.736;8.734;2023-08-06T00:44:32;3.10;;;2.50;;
11447;SDS011;43755;49.736;8.734;2023-08-06T00:46:34;2.80;;;2.50;;
11447;SDS011;43755;49.736;8.734;2023-08-06T00:48:36;2.55;;;2.35;;
11447;SDS011;43755;49.736;8.734;2023-08-06T00:50:38;2.75;;;2.55;;
11447;SDS011;43755;49.736;8.734;2023-08-06T00:52:39;2.33;;;2.22;;
11447;SDS011;43755;49.736;8.734;2023-08-06T00:54:41;2.63;;;2.33;;
11447;SDS011;43755;49.736;8.734;2023-08-06T00:56:43;3.55;;;2.67;;
11447;SDS011;43755;49.736;8.734;2023-08-06T00:58:43;3.67;;;2.27;;
11447;SDS011;43755;49.736;8.734;2023-08-06T01:00:46;3.40;;;2.40;;
11447;SDS011;43755;49.736;8.734;2023-08-06T01:02:48;2.60;;;2.40;;
11447;SDS011;43755;49.736;8.734;2023-08-06T01:04:50;2.97;;;2.40;;
11447;SDS011;43755;49.736;8.734;2023-08-06T01:06:55;2.55;;;2.20;;
11447;SDS011;43755;49.736;8.734;2023-08-06T01:09:04;2.50;;;2.30;;
11447;SDS011;43755;49.736;8.734;2023-08-06T01:11:21;2.20;;;2.10;;
11447;SDS011;43755;49.736;8.734;2023-08-06T01:13:32;2.38;;;2.10;;
11447;SDS011;43755;49.736;8.734;2023-08-06T01:15:41;3.38;;;2.10;;
11447;SDS011;43755;49.736;8.734;2023-08-06T01:17:45;3.78;;;2.20;;
11447;SDS011;43755;49.736;8.734;2023-08-06T01:19:47;2.10;;;1.90;;
11447;SDS011;43755;49.736;8.734;2023-08-06T01:21:50;2.10;;;1.90;;
11447;SDS011;43755;49.736;8.734;2023-08-06T01:23:51;2.50;;;2.28;;
11447;SDS011;43755;49.736;8.734;2023-08-06T01:25:55;2.47;;;2.28;;
11447;SDS011;43755;49.736;8.734;2023-08-06T01:28:02;3.67;;;2.42;;
11447;SDS011;43755;49.736;8.734;2023-08-06T01:30:09;2.60;;;2.40;;
11447;SDS011;43755;49.736;8.734;2023-08-06T01:32:14;2.75;;;2.17;;
11447;SDS011;43755;49.736;8.734;2023-08-06T01:34:17;2.40;;;2.30;;
11447;SDS011;43755;49.736;8.734;2023-08-06T01:36:21;2.42;;;2.20;;
11447;SDS011;43755;49.736;8.734;2023-08-06T01:38:25;2.05;;;1.90;;
11447;SDS011;43755;49.736;8.734;2023-08-06T01:40:28;2.80;;;2.00;;
11447;SDS011;43755;49.736;8.734;2023-08-06T01:42:30;3.88;;;2.15;;
11447;SDS011;43755;49.736;8.734;2023-08-06T01:44:31;3.75;;;2.13;;
11447;SDS011;43755;49.736;8.734;2023-08-06T01:46:31;3.93;;;2.30;;
11447;SDS011;43755;49.736;8.734;2023-08-06T01:48:33;2.38;;;2.20;;
11447;SDS011;43755;49.736;8.734;2023-08-06T01:50:33;2.70;;;2.50;;
11447;SDS011;43755;49.736;8.734;2023-08-06T01:52:35;2.70;;;2.17;;
11447;SDS011;43755;49.736;8.734;2023-08-06T01:54:37;2.17;;;2.03;;
11447;SDS011;43755;49.736;8.734;2023-08-06T01:56:39;2.58;;;2.38;;
11447;SDS011;43755;49.736;8.734;2023-08-06T01:58:40;2.08;;;1.85;;
11447;SDS011;43755;49.736;8.734;2023-08-06T02:00:42;4.32;;;2.33;;
11447;SDS011;43755;49.736;8.734;2023-08-06T02:02:43;2.30;;;2.13;;
11447;SDS011;43755;49.736;8.734;2023-08-06T02:04:44;2.60;;;2.40;;
11447;SDS011;43755;49.736;8.734;2023-08-06T02:06:46;5.10;;;2.40;;
11447;SDS011;43755;49.736;8.734;2023-08-06T02:08:47;3.53;;;2.28;;
11447;SDS011;43755;49.736;8.734;2023-08-06T02:10:49;2.70;;;2.33;;
11447;SDS011;43755;49.736;8.734;2023-08-06T02:12:50;2.38;;;2.17;;
11447;SDS011;43755;49.736;8.734;2023-08-06T02:14:52;2.55;;;2.15;;
11447;SDS011;43755;49.736;8.734;2023-08-06T02:16:53;2.13;;;2.00;;
11447;SDS011;43755;49.736;8.734;2023-08-06T02:18:54;2.55;;;2.20;;
11447;SDS011;43755;49.736;8.734;2023-08-06T02:20:56;2.80;;;2.20;;
11447;SDS011;43755;49.736;8.734;2023-08-06T02:22:57;2.35;;;2.15;;
11447;SDS011;43755;49.736;8.734;2023-08-06T02:24:58;2.20;;;1.98;;
11447;SDS011;43755;49.736;8.734;2023-08-06T02:27:00;2.83;;;2.13;;
11447;SDS011;43755;49.736;8.734;2023-08-06T02:29:02;2.40;;;2.17;;
11447;SDS011;43755;49.736;8.734;2023-08-06T02:31:03;3.85;;;2.40;;
11447;SDS011;43755;49.736;8.734;2023-08-06T02:33:06;2.72;;;2.13;;
11447;SDS011;43755;49.736;8.734;2023-08-06T02:35:08;3.58;;;2.30;;
11447;SDS011;43755;49.736;8.734;2023-08-06T02:37:09;2.55;;;2.20;;
11447;SDS011;43755;49.736;8.734;2023-08-06T02:39:11;2.53;;;2.10;;
11447;SDS011;43755;49.736;8.734;2023-08-06T02:41:11;2.40;;;2.20;;
11447;SDS011;43755;49.736;8.734;2023-08-06T02:43:14;2.25;;;2.03;;
11447;SDS011;43755;49.736;8.734;2023-08-06T02:45:15;3.78;;;2.35;;
11447;SDS011;43755;49.736;8.734;2023-08-06T02:47:16;2.78;;;1.83;;
11447;SDS011;43755;49.736;8.734;2023-08-06T02:49:18;2.45;;;2.25;;
11447;SDS011;43755;49.736;8.734;2023-08-06T02:51:19;2.47;;;2.20;;
11447;SDS011;43755;49.736;8.734;2023-08-06T02:53:21;2.85;;;2.15;;
11447;SDS011;43755;49.736;8.734;2023-08-06T02:55:21;2.30;;;2.03;;
11447;SDS011;43755;49.736;8.734;2023-08-06T02:57:23;2.35;;;2.10;;
11447;SDS011;43755;49.736;8.734;2023-08-06T02:59:25;3.05;;;2.20;;
11447;SDS011;43755;49.736;8.734;2023-08-06T03:01:27;3.30;;;2.22;;
11447;SDS011;43755;49.736;8.734;2023-08-06T03:03:29;3.85;;;2.22;;
11447;SDS011;43755;49.736;8.734;2023-08-06T03:05:29;3.73;;;2.13;;
11447;SDS011;43755;49.736;8.734;2023-08-06T03:07:31;2.58;;;2.17;;
11447;SDS011;43755;49.736;8.734;2023-08-06T03:09:31;2.53;;;2.20;;
11447;SDS011;43755;49.736;8.734;2023-08-06T03:11:32;3.83;;;2.30;;
11447;SDS011;43755;49.736;8.734;2023-08-06T03:13:34;2.67;;;2.20;;
11447;SDS011;43755;49.736;8.734;2023-08-06T03:15:36;3.45;;;2.20;;
11447;SDS011;43755;49.736;8.734;2023-08-06T03:17:38;3.85;;;2.30;;
11447;SDS011;43755;49.736;8.734;2023-08-06T03:19:40;3.08;;;2.47;;
11447;SDS011;43755;49.736;8.734;2023-08-06T03:21:41;2.40;;;2.17;;
11447;SDS011;43755;49.736;8.734;2023-08-06T03:23:42;4.13;;;2.20;;
11447;SDS011;43755;49.736;8.734;2023-08-06T03:25:44;3.40;;;2.10;;
11447;SDS011;43755;49.736;8.734;2023-08-06T03:27:45;2.83;;;1.95;;
11447;SDS011;43755;49.736;8.734;2023-08-06T03:29:48;2.92;;;2.20;;
11447;SDS011;43755;49.736;8.734;2023-08-06T03:31:51;2.15;;;1.95;;
11447;SDS011;43755;49.736;8.734;2023-08-06T03:33:53;3.28;;;2.17;;
11447;SDS011;43755;49.736;8.734;2023-08-06T03:35:54;3.33;;;2.30;;
11447;SDS011;43755;49.736;8.734;2023-08-06T03:37:56;2.60;;;2.05;;
11447;SDS011;43755;49.736;8.734;2023-08-06T03:39:57;2.60;;;2.10;;
11447;SDS011;43755;49.736;8.734;2023-08-06T03:41:59;6.40;;;2.63;;
11447;SDS011;43755;49.736;8.734;2023-08-06T03:44:00;2.50;;;2.30;;
11447;SDS011;43755;49.736;8.734;2023-08-06T03:46:03;3.53;;;2.00;;
11447;SDS011;43755;49.736;8.734;2023-08-06T03:48:06;2.30;;;2.10;;
11447;SDS011;43755;49.736;8.734;2023-08-06T03:50:07;3.67;;;2.38;;
11447;SDS011;43755;49.736;8.734;2023-08-06T03:52:09;4.88;;;2.60;;
11447;SDS011;43755;49.736;8.734;2023-08-06T03:54:11;3.53;;;2.20;;
11447;SDS011;43755;49.736;8.734;2023-08-06T03:56:11;2.57;;;2.30;;
11447;SDS011;43755;49.736;8.734;2023-08-06T03:58:13;2.40;;;2.20;;
11447;SDS011;43755;49.736;8.734;2023-08-06T04:00:13;2.57;;;2.00;;
11447;SDS011;43755;49.736;8.734;2023-08-06T04:02:14;2.35;;;2.15;;
11447;SDS011;43755;49.736;8.734;2023-08-06T04:04:17;3.83;;;2.30;;
11447;SDS011;43755;49.736;8.734;2023-08-06T04:06:18;2.25;;;2.05;;
11447;SDS011;43755;49.736;8.734;2023-08-06T04:08:20;2.97;;;2.00;;
11447;SDS011;43755;49.736;8.734;2023-08-06T04:10:21;6.80;;;2.53;;
11447;SDS011;43755;49.736;8.734;2023-08-06T04:12:23;2.58;;;2.00;;
11447;SDS011;43755;49.736;8.734;2023-08-06T04:14:25;2.78;;;1.98;;
11447;SDS011;43755;49.736;8.734;2023-08-06T04:16:26;2.45;;;2.00;;
11447;SDS011;43755;49.736;8.734;2023-08-06T04:18:27;3.67;;;2.30;;
11447;SDS011;43755;49.736;8.734;2023-08-06T04:20:30;3.90;;;1.83;;
11447;SDS011;43755;49.736;8.734;2023-08-06T04:22:31;4.18;;;2.42;;
11447;SDS011;43755;49.736;8.734;2023-08-06T04:24:33;4.15;;;2.40;;
11447;SDS011;43755;49.736;8.734;2023-08-06T04:26:34;2.50;;;2.30;;
11447;SDS011;43755;49.736;8.734;2023-08-06T04:28:36;4.43;;;2.20;;
11447;SDS011;43755;49.736;8.734;2023-08-06T04:30:37;2.65;;;2.15;;
11447;SDS011;43755;49.736;8.734;2023-08-06T04:32:39;3.13;;;1.98;;
11447;SDS011;43755;49.736;8.734;2023-08-06T04:34:40;2.58;;;1.80;;
11447;SDS011;43755;49.736;8.734;2023-08-06T04:36:43;2.60;;;2.03;;
11447;SDS011;43755;49.736;8.734;2023-08-06T04:38:44;3.13;;;2.17;;
11447;SDS011;43755;49.736;8.734;2023-08-06T04:40:47;2.80;;;2.20;;
11447;SDS011;43755;49.736;8.734;2023-08-06T04:42:48;2.15;;;2.00;;
11447;SDS011;43755;49.736;8.734;2023-08-06T04:44:50;2.72;;;1.80;;
11447;SDS011;43755;49.736;8.734;2023-08-06T04:46:51;3.45;;;2.33;;
11447;SDS011;43755;49.736;8.734;2023-08-06T04:48:53;3.42;;;2.30;;
11447;SDS011;43755;49.736;8.734;2023-08-06T04:50:54;2.45;;;1.90;;
11447;SDS011;43755;49.736;8.734;2023-08-06T04:52:57;2.13;;;2.00;;
11447;SDS011;43755;49.736;8.734;2023-08-06T04:54:58;2.75;;;2.20;;
11447;SDS011;43755;49.736;8.734;2023-08-06T04:56:59;2.57;;;1.97;;
11447;SDS011;43755;49.736;8.734;2023-08-06T04:59:00;2.50;;;2.00;;
11447;SDS011;43755;49.736;8.734;2023-08-06T05:01:02;2.83;;;2.08;;
11447;SDS011;43755;49.736;8.734;2023-08-06T05:03:03;4.72;;;2.28;;
11447;SDS011;43755;49.736;8.734;2023-08-06T05:05:05;4.03;;;2.20;;
11447;SDS011;43755;49.736;8.734;2023-08-06T05:07:07;2.22;;;2.00;;
11447;SDS011;43755;49.736;8.734;2023-08-06T05:09:10;3.50;;;2.30;;
11447;SDS011;43755;49.736;8.734;2023-08-06T05:11:11;2.03;;;1.90;;
11447;SDS011;43755;49.736;8.734;2023-08-06T05:13:13;2.08;;;1.90;;
11447;SDS011;43755;49.736;8.734;2023-08-06T05:15:14;3.05;;;1.90;;
11447;SDS011;43755;49.736;8.734;2023-08-06T05:17:16;2.08;;;1.90;;
11447;SDS011;43755;49.736;8.734;2023-08-06T05:19:16;3.97;;;1.97;;
11447;SDS011;43755;49.736;8.734;2023-08-06T05:21:17;2.03;;;1.92;;
11447;SDS011;43755;49.736;8.734;2023-08-06T05:23:19;3.38;;;2.00;;
11447;SDS011;43755;49.736;8.734;2023-08-06T05:25:21;3.60;;;1.70;;
11447;SDS011;43755;49.736;8.734;2023-08-06T05:27:23;4.70;;;2.50;;
11447;SDS011;43755;49.736;8.734;2023-08-06T05:29:24;2.13;;;1.67;;
11447;SDS011;43755;49.736;8.734;2023-08-06T05:31:27;2.05;;;1.60;;
11447;SDS011;43755;49.736;8.734;2023-08-06T05:33:29;2.65;;;1.52;;
11447;SDS011;43755;49.736;8.734;2023-08-06T05:35:30;1.77;;;1.45;;
11447;SDS011;43755;49.736;8.734;2023-08-06T05:37:30;2.63;;;1.70;;
11447;SDS011;43755;49.736;8.734;2023-08-06T05:39:32;2.20;;;1.60;;
11447;SDS011;43755;49.736;8.734;2023-08-06T05:41:34;2.25;;;2.03;;
11447;SDS011;43755;49.736;8.734;2023-08-06T05:43:36;2.58;;;1.58;;
11447;SDS011;43755;49.736;8.734;2023-08-06T05:45:37;1.88;;;1.20;;
11447;SDS011;43755;49.736;8.734;2023-08-06T05:47:38;1.50;;;1.40;;
11447;SDS011;43755;49.736;8.734;2023-08-06T05:49:39;1.33;;;1.33;;
11447;SDS011;43755;49.736;8.734;2023-08-06T05:51:39;1.83;;;1.10;;
11447;SDS011;43755;49.736;8.734;2023-08-06T05:53:41;1.42;;;1.17;;
11447;SDS011;43755;49.736;8.734;2023-08-06T05:55:42;1.38;;;1.20;;
11447;SDS011;43755;49.736;8.734;2023-08-06T05:57:45;1.38;;;1.27;;
11447;SDS011;43755;49.736;8.734;2023-08-06T05:59:47;1.30;;;0.90;;
11447;SDS011;43755;49.736;8.734;2023-08-06T06:01:48;1.30;;;1.20;;
11447;SDS011;43755;49.736;8.734;2023-08-06T06:03:49;1.05;;;1.05;;
11447;SDS011;43755;49.736;8.734;2023-08-06T06:05:51;1.63;;;1.15;;
11447;SDS011;43755;49.736;8.734;2023-08-06T06:07:52;1.27;;;1.17;;
11447;SDS011;43755;49.736;8.734;2023-08-06T06:09:53;1.35;;;1.25;;
11447;SDS011;43755;49.736;8.734;2023-08-06T06:11:54;1.63;;;1.30;;
11447;SDS011;43755;49.736;8.734;2023-08-06T06:13:57;2.00;;;1.50;;
11447;SDS011;43755;49.736;8.734;2023-08-06T06:15:57;2.33;;;1.40;;
11447;SDS011;43755;49.736;8.734;2023-08-06T06:17:58;1.33;;;1.05;;
11447;SDS011;43755;49.736;8.734;2023-08-06T06:20:00;1.13;;;1.02;;
11447;SDS011;43755;49.736;8.734;2023-08-06T06:22:03;1.20;;;1.10;;
11447;SDS011;43755;49.736;8.734;2023-08-06T06:24:05;1.55;;;1.20;;
11447;SDS011;43755;49.736;8.734;2023-08-06T06:26:08;1.27;;;0.90;;
11447;SDS011;43755;49.736;8.734;2023-08-06T06:28:10;2.15;;;1.00;;
11447;SDS011;43755;49.736;8.734;2023-08-06T06:30:12;0.90;;;0.90;;
11447;SDS011;43755;49.736;8.734;2023-08-06T06:32:14;1.05;;;1.05;;
11447;SDS011;43755;49.736;8.734;2023-08-06T06:34:14;1.13;;;0.90;;
11447;SDS011;43755;49.736;8.734;2023-08-06T06:36:16;1.08;;;0.98;;
11447;SDS011;43755;49.736;8.734;2023-08-06T06:38:19;1.10;;;0.90;;
11447;SDS011;43755;49.736;8.734;2023-08-06T06:40:20;1.40;;;1.30;;
11447;SDS011;43755;49.736;8.734;2023-08-06T06:42:22;1.40;;;1.30;;
11447;SDS011;43755;49.736;8.734;2023-08-06T06:44:23;1.23;;;1.10;;
11447;SDS011;43755;49.736;8.734;2023-08-06T06:46:26;1.25;;;1.10;;
11447;SDS011;43755;49.736;8.734;2023-08-06T06:48:28;2.53;;;1.33;;
11447;SDS011;43755;49.736;8.734;2023-08-06T06:50:30;1.15;;;1.05;;
11447;SDS011;43755;49.736;8.734;2023-08-06T06:52:31;1.65;;;1.10;;
11447;SDS011;43755;49.736;8.734;2023-08-06T06:54:33;1.45;;;1.27;;
11447;SDS011;43755;49.736;8.734;2023-08-06T06:56:34;2.08;;;1.20;;
11447;SDS011;43755;49.736;8.734;2023-08-06T06:58:36;1.65;;;1.10;;
11447;SDS011;43755;49.736;8.734;2023-08-06T07:00:38;1.15;;;1.00;;
11447;SDS011;43755;49.736;8.734;2023-08-06T07:02:41;1.88;;;1.20;;
11447;SDS011;43755;49.736;8.734;2023-08-06T07:04:42;1.10;;;1.00;;
11447;SDS011;43755;49.736;8.734;2023-08-06T07:06:43;2.13;;;1.33;;
11447;SDS011;43755;49.736;8.734;2023-08-06T07:08:44;1.73;;;1.17;;
11447;SDS011;43755;49.736;8.734;2023-08-06T07:10:46;2.78;;;1.10;;
11447;SDS011;43755;49.736;8.734;2023-08-06T07:12:47;1.95;;;1.10;;
11447;SDS011;43755;49.736;8.734;2023-08-06T07:14:48;2.35;;;1.10;;
11447;SDS011;43755;49.736;8.734;2023-08-06T07:16:50;1.00;;;1.00;;
11447;SDS011;43755;49.736;8.734;2023-08-06T07:18:53;1.55;;;1.17;;
11447;SDS011;43755;49.736;8.734;2023-08-06T07:20:55;2.50;;;1.20;;
11447;SDS011;43755;49.736;8.734;2023-08-06T07:22:57;3.05;;;1.17;;
11447;SDS011;43755;49.736;8.734;2023-08-06T07:24:58;0.80;;;0.80;;
11447;SDS011;43755;49.736;8.734;2023-08-06T07:27:00;3.42;;;1.20;;
11447;SDS011;43755;49.736;8.734;2023-08-06T07:29:01;3.88;;;1.30;;
11447;SDS011;43755;49.736;8.734;2023-08-06T07:31:03;1.98;;;1.27;;
11447;SDS011;43755;49.736;8.734;2023-08-06T07:33:04;1.70;;;1.20;;
11447;SDS011;43755;49.736;8.734;2023-08-06T07:35:08;1.33;;;0.93;;
11447;SDS011;43755;49.736;8.734;2023-08-06T07:37:12;2.92;;;1.27;;
11447;SDS011;43755;49.736;8.734;2023-08-06T07:39:13;1.95;;;0.90;;
11447;SDS011;43755;49.736;8.734;2023-08-06T07:41:16;0.90;;;0.80;;
11447;SDS011;43755;49.736;8.734;2023-08-06T07:43:18;1.65;;;1.00;;
11447;SDS011;43755;49.736;8.734;2023-08-06T07:45:20;1.27;;;1.17;;
11447;SDS011;43755;49.736;8.734;2023-08-06T07:47:21;1.90;;;1.10;;
11447;SDS011;43755;49.736;8.734;2023-08-06T07:49:23;2.95;;;1.02;;
11447;SDS011;43755;49.736;8.734;2023-08-06T07:51:26;1.23;;;1.10;;
11447;SDS011;43755;49.736;8.734;2023-08-06T07:53:26;1.17;;;1.08;;
11447;SDS011;43755;49.736;8.734;2023-08-06T07:55:29;1.35;;;1.10;;
11447;SDS011;43755;49.736;8.734;2023-08-06T07:57:30;2.92;;;1.25;;
11447;SDS011;43755;49.736;8.734;2023-08-06T07:59:32;1.85;;;1.27;;
11447;SDS011;43755;49.736;8.734;2023-08-06T08:01:34;3.70;;;1.70;;
11447;SDS011;43755;49.736;8.734;2023-08-06T08:03:35;4.55;;;1.40;;
11447;SDS011;43755;49.736;8.734;2023-08-06T08:05:36;2.55;;;1.60;;
11447;SDS011;43755;49.736;8.734;2023-08-06T08:07:39;1.60;;;1.50;;
11447;SDS011;43755;49.736;8.734;2023-08-06T08:09:41;1.35;;;1.17;;
11447;SDS011;43755;49.736;8.734;2023-08-06T08:11:42;1.77;;;1.25;;
11447;SDS011;43755;49.736;8.734;2023-08-06T08:13:43;1.55;;;1.30;;
11447;SDS011;43755;49.736;8.734;2023-08-06T08:15:45;2.55;;;1.27;;
11447;SDS011;43755;49.736;8.734;2023-08-06T08:17:45;5.17;;;1.57;;
11447;SDS011;43755;49.736;8.734;2023-08-06T08:19:48;2.38;;;1.50;;
11447;SDS011;43755;49.736;8.734;2023-08-06T08:21:49;1.88;;;1.30;;
11447;SDS011;43755;49.736;8.734;2023-08-06T08:23:52;1.17;;;1.08;;
11447;SDS011;43755;49.736;8.734;2023-08-06T08:25:53;1.90;;;1.20;;
11447;SDS011;43755;49.736;8.734;2023-08-06T08:27:55;2.85;;;1.40;;
11447;SDS011;43755;49.736;8.734;2023-08-06T08:29:56;1.63;;;1.10;;
11447;SDS011;43755;49.736;8.734;2023-08-06T08:31:58;3.15;;;1.20;;
11447;SDS011;43755;49.736;8.734;2023-08-06T08:33:59;2.17;;;1.10;;
11447;SDS011;43755;49.736;8.734;2023-08-06T08:36:01;1.15;;;1.15;;
11447;SDS011;43755;49.736;8.734;2023-08-06T08:38:02;1.45;;;1.10;;
11447;SDS011;43755;49.736;8.734;2023-08-06T08:40:06;2.08;;;1.20;;
11447;SDS011;43755;49.736;8.734;2023-08-06T08:42:08;4.50;;;1.30;;
11447;SDS011;43755;49.736;8.734;2023-08-06T08:44:10;1.15;;;1.15;;
11447;SDS011;43755;49.736;8.734;2023-08-06T08:46:11;1.40;;;1.30;;
11447;SDS011;43755;49.736;8.734;2023-08-06T08:48:14;2.05;;;1.50;;
11447;SDS011;43755;49.736;8.734;2023-08-06T08:50:17;1.42;;;1.30;;
11447;SDS011;43755;49.736;8.734;2023-08-06T08:52:19;1.50;;;1.40;;
11447;SDS011;43755;49.736;8.734;2023-08-06T08:54:23;1.50;;;1.50;;
11447;SDS011;43755;49.736;8.734;2023-08-06T08:56:26;1.80;;;1.38;;
11447;SDS011;43755;49.736;8.734;2023-08-06T08:58:27;1.20;;;1.10;;
11447;SDS011;43755;49.736;8.734;2023-08-06T09:00:29;0.98;;;0.98;;
11447;SDS011;43755;49.736;8.734;2023-08-06T09:02:31;1.05;;;0.95;;
11447;SDS011;43755;49.736;8.734;2023-08-06T09:04:34;0.98;;;0.93;;
11447;SDS011;43755;49.736;8.734;2023-08-06T09:06:37;1.55;;;1.30;;
11447;SDS011;43755;49.736;8.734;2023-08-06T09:08:41;1.88;;;1.60;;
11447;SDS011;43755;49.736;8.734;2023-08-06T09:10:48;1.30;;;1.20;;
11447;SDS011;43755;49.736;8.734;2023-08-06T09:12:51;1.50;;;1.40;;
11447;SDS011;43755;49.736;8.734;2023-08-06T09:14:53;1.75;;;1.50;;
11447;SDS011;43755;49.736;8.734;2023-08-06T09:16:55;1.50;;;1.40;;
11447;SDS011;43755;49.736;8.734;2023-08-06T09:19:00;2.08;;;1.30;;
11447;SDS011;43755;49.736;8.734;2023-08-06T09:21:14;1.40;;;1.40;;
11447;SDS011;43755;49.736;8.734;2023-08-06T09:23:16;1.23;;;1.23;;
11447;SDS011;43755;49.736;8.734;2023-08-06T09:25:20;1.25;;;1.20;;
11447;SDS011;43755;49.736;8.734;2023-08-06T09:27:23;1.30;;;1.15;;
11447;SDS011;43755;49.736;8.734;2023-08-06T09:29:26;0.93;;;0.93;;
11447;SDS011;43755;49.736;8.734;2023-08-06T09:31:32;0.90;;;0.90;;
11447;SDS011;43755;49.736;8.734;2023-08-06T09:33:35;2.17;;;1.83;;
11447;SDS011;43755;49.736;8.734;2023-08-06T09:35:37;0.98;;;0.88;;
11447;SDS011;43755;49.736;8.734;2023-08-06T09:37:38;1.38;;;1.20;;
11447;SDS011;43755;49.736;8.734;2023-08-06T09:39:39;0.93;;;0.80;;
11447;SDS011;43755;49.736;8.734;2023-08-06T09:41:41;1.02;;;0.90;;
11447;SDS011;43755;49.736;8.734;2023-08-06T09:43:42;0.70;;;0.70;;
11447;SDS011;43755;49.736;8.734;2023-08-06T09:45:45;0.80;;;0.80;;
11447;SDS011;43755;49.736;8.734;2023-08-06T09:47:46;0.85;;;0.85;;
11447;SDS011;43755;49.736;8.734;2023-08-06T09:49:48;2.10;;;1.00;;
11447;SDS011;43755;49.736;8.734;2023-08-06T09:51:51;0.93;;;0.75;;
11447;SDS011;43755;49.736;8.734;2023-08-06T09:53:55;1.08;;;0.63;;
11447;SDS011;43755;49.736;8.734;2023-08-06T09:55:57;0.85;;;0.85;;
11447;SDS011;43755;49.736;8.734;2023-08-06T09:57:58;0.73;;;0.73;;
11447;SDS011;43755;49.736;8.734;2023-08-06T10:00:00;0.50;;;0.50;;
11447;SDS011;43755;49.736;8.734;2023-08-06T10:02:03;0.65;;;0.65;;
11447;SDS011;43755;49.736;8.734;2023-08-06T10:04:13;0.55;;;0.55;;
11447;SDS011;43755;49.736;8.734;2023-08-06T10:06:16;0.50;;;0.50;;
11447;SDS011;43755;49.736;8.734;2023-08-06T10:08:18;0.68;;;0.40;;
11447;SDS011;43755;49.736;8.734;2023-08-06T10:10:20;0.40;;;0.40;;
11447;SDS011;43755;49.736;8.734;2023-08-06T10:12:21;0.30;;;0.30;;
11447;SDS011;43755;49.736;8.734;2023-08-06T10:14:25;0.30;;;0.30;;
11447;SDS011;43755;49.736;8.734;2023-08-06T10:16:30;0.40;;;0.40;;
11447;SDS011;43755;49.736;8.734;2023-08-06T10:18:33;1.15;;;0.40;;
11447;SDS011;43755;49.736;8.734;2023-08-06T10:20:38;0.38;;;0.38;;
11447;SDS011;43755;49.736;8.734;2023-08-06T10:22:42;0.38;;;0.30;;
11447;SDS011;43755;49.736;8.734;2023-08-06T10:24:49;0.45;;;0.45;;
11447;SDS011;43755;49.736;8.734;2023-08-06T10:26:52;1.08;;;0.80;;
11447;SDS011;43755;49.736;8.734;2023-08-06T10:28:59;1.80;;;0.40;;
11447;SDS011;43755;49.736;8.734;2023-08-06T10:31:01;0.63;;;0.40;;
11447;SDS011;43755;49.736;8.734;2023-08-06T10:33:02;0.20;;;0.20;;
11447;SDS011;43755;49.736;8.734;2023-08-06T10:35:06;0.40;;;0.40;;
11447;SDS011;43755;49.736;8.734;2023-08-06T10:37:09;0.30;;;0.30;;
11447;SDS011;43755;49.736;8.734;2023-08-06T10:39:09;0.63;;;0.40;;
11447;SDS011;43755;49.736;8.734;2023-08-06T10:41:15;0.25;;;0.25;;
11447;SDS011;43755;49.736;8.734;2023-08-06T10:45:38;1.00;;;0.40;;
11447;SDS011;43755;49.736;8.734;2023-08-06T10:47:50;0.28;;;0.20;;
11447;SDS011;43755;49.736;8.734;2023-08-06T10:49:51;0.77;;;0.30;;
11447;SDS011;43755;49.736;8.734;2023-08-06T10:51:54;1.75;;;0.40;;
11447;SDS011;43755;49.736;8.734;2023-08-06T10:53:55;0.20;;;0.20;;
11447;SDS011;43755;49.736;8.734;2023-08-06T10:55:58;0.60;;;0.60;;
11447;SDS011;43755;49.736;8.734;2023-08-06T10:58:00;0.30;;;0.30;;
11447;SDS011;43755;49.736;8.734;2023-08-06T11:00:03;0.47;;;0.35;;
11447;SDS011;43755;49.736;8.734;2023-08-06T11:02:05;0.20;;;0.20;;
11447;SDS011;43755;49.736;8.734;2023-08-06T11:04:06;0.63;;;0.35;;
11447;SDS011;43755;49.736;8.734;2023-08-06T11:06:08;0.90;;;0.40;;
11447;SDS011;43755;49.736;8.734;2023-08-06T11:08:11;1.08;;;0.50;;
11447;SDS011;43755;49.736;8.734;2023-08-06T11:10:13;0.30;;;0.30;;
11447;SDS011;43755;49.736;8.734;2023-08-06T11:12:17;1.48;;;0.22;;
11447;SDS011;43755;49.736;8.734;2023-08-06T11:14:19;0.30;;;0.30;;
11447;SDS011;43755;49.736;8.734;2023-08-06T11:16:21;1.08;;;0.20;;
11447;SDS011;43755;49.736;8.734;2023-08-06T11:18:24;0.57;;;0.45;;
11447;SDS011;43755;49.736;8.734;2023-08-06T11:20:25;0.38;;;0.30;;
11447;SDS011;43755;49.736;8.734;2023-08-06T11:22:27;0.30;;;0.30;;
11447;SDS011;43755;49.736;8.734;2023-08-06T11:24:30;1.10;;;0.40;;
11447;SDS011;43755;49.736;8.734;2023-08-06T11:26:31;2.30;;;0.32;;
11447;SDS011;43755;49.736;8.734;2023-08-06T11:28:32;0.90;;;0.30;;
11447;SDS011;43755;49.736;8.734;2023-08-06T11:30:34;0.20;;;0.20;;
11447;SDS011;43755;49.736;8.734;2023-08-06T11:32:44;0.17;;;0.10;;
11447;SDS011;43755;49.736;8.734;2023-08-06T11:34:46;1.83;;;0.30;;
11447;SDS011;43755;49.736;8.734;2023-08-06T11:36:47;0.75;;;0.30;;
11447;SDS011;43755;49.736;8.734;2023-08-06T11:38:49;0.35;;;0.22;;
11447;SDS011;43755;49.736;8.734;2023-08-06T11:40:51;0.75;;;0.30;;
11447;SDS011;43755;49.736;8.734;2023-08-06T11:42:53;0.40;;;0.40;;
11447;SDS011;43755;49.736;8.734;2023-08-06T11:44:56;0.40;;;0.40;;
11447;SDS011;43755;49.736;8.734;2023-08-06T11:46:58;0.63;;;0.35;;
11447;SDS011;43755;49.736;8.734;2023-08-06T11:49:01;0.50;;;0.50;;
11447;SDS011;43755;49.736;8.734;2023-08-06T11:51:02;0.40;;;0.30;;
11447;SDS011;43755;49.736;8.734;2023-08-06T11:53:05;0.60;;;0.60;;
11447;SDS011;43755;49.736;8.734;2023-08-06T11:55:08;0.75;;;0.50;;
11447;SDS011;43755;49.736;8.734;2023-08-06T11:57:12;2.15;;;0.60;;
11447;SDS011;43755;49.736;8.734;2023-08-06T11:59:14;1.15;;;0.47;;
11447;SDS011;43755;49.736;8.734;2023-08-06T12:01:18;0.50;;;0.50;;
11447;SDS011;43755;49.736;8.734;2023-08-06T12:03:19;1.85;;;0.77;;
11447;SDS011;43755;49.736;8.734;2023-08-06T12:05:21;0.60;;;0.60;;
11447;SDS011;43755;49.736;8.734;2023-08-06T12:07:25;1.05;;;0.70;;
11447;SDS011;43755;49.736;8.734;2023-08-06T12:09:27;1.05;;;0.60;;
11447;SDS011;43755;49.736;8.734;2023-08-06T12:11:28;1.05;;;0.82;;
11447;SDS011;43755;49.736;8.734;2023-08-06T12:13:31;0.68;;;0.60;;
11447;SDS011;43755;49.736;8.734;2023-08-06T12:15:32;0.50;;;0.50;;
11447;SDS011;43755;49.736;8.734;2023-08-06T12:17:34;0.50;;;0.50;;
11447;SDS011;43755;49.736;8.734;2023-08-06T12:19:35;0.57;;;0.57;;